Rocky Branch, Texas
Current Conditions -  °F | °C
As of 11:15 AM on Friday 28 Nov 2014 (Local Time) from KOSA Reporting Station
Clear Clear  
Wind Chill: 59°   Ceiling: Unl
Heat Index: 59°   Visibility: 10mi
Dew Point: 36°   Wind: 10mph
Humidity: 42%   Direction: 180°S
Pressure: 30.28"   Gusts: NA
Location:  33.2006°N, 94.6977°W
Report Text: KOSA 281715Z AUTO 18009KT 10SM CLR 15/02 A3028 RMK AO1 T01500022
Loading
Personal Weather Stations






























Interactive Weather Map New forecast layout! Learn more

10-Day Weather Forecast

Advertisements
Track Severe Weather on mobile